createdAt,value
2022-09-12T00:01:19.513Z,18.51
2022-09-12T00:03:46.240Z,18.52
2022-09-12T00:06:21.959Z,18.24
2022-09-12T00:08:49.758Z,17.92
2022-09-12T00:11:16.395Z,18.39
2022-09-12T00:13:44.340Z,18.79
2022-09-12T00:16:21.835Z,18.34
2022-09-12T00:18:49.332Z,18.54
2022-09-12T00:21:21.542Z,18.84
2022-09-12T00:23:48.737Z,18.57
2022-09-12T00:26:17.290Z,18.15
2022-09-12T00:28:44.693Z,18.15
2022-09-12T00:31:14.283Z,18.46
2022-09-12T00:33:41.356Z,18.66
2022-09-12T00:36:13.025Z,18.59
2022-09-12T00:38:42.192Z,18.87
2022-09-12T00:41:21.397Z,18.90
2022-09-12T00:43:51.176Z,18.71
2022-09-12T00:46:39.553Z,18.35
2022-09-12T00:49:17.124Z,17.94
2022-09-12T00:51:49.578Z,18.14
2022-09-12T00:54:21.547Z,18.08
2022-09-12T00:56:53.871Z,18.14
2022-09-12T00:59:30.111Z,18.20
2022-09-12T01:01:57.177Z,18.32
2022-09-12T01:04:26.052Z,18.24
2022-09-12T01:06:54.517Z,18.00
2022-09-12T01:09:23.287Z,17.55
2022-09-12T01:11:51.333Z,17.96
2022-09-12T01:14:20.355Z,17.88
2022-09-12T01:16:49.989Z,17.67
2022-09-12T01:19:25.192Z,17.62
2022-09-12T01:22:10.243Z,17.76
2022-09-12T01:24:54.039Z,17.95
2022-09-12T01:27:51.727Z,17.90
2022-09-12T01:30:33.397Z,17.75
2022-09-12T01:33:44.633Z,17.45
2022-09-12T01:36:38.526Z,17.86
2022-09-12T01:39:12.887Z,17.84
2022-09-12T01:41:42.420Z,17.85
2022-09-12T01:44:23.133Z,17.87
2022-09-12T01:47:25.155Z,17.41
2022-09-12T01:50:07.976Z,17.67
2022-09-12T01:52:37.664Z,17.80
2022-09-12T01:55:10.387Z,17.45
2022-09-12T01:57:51.186Z,17.35
2022-09-12T02:00:18.056Z,17.56
2022-09-12T02:03:10.391Z,17.27
2022-09-12T02:05:45.243Z,17.75
2022-09-12T02:08:19.306Z,17.95
2022-09-12T02:11:10.577Z,17.43
2022-09-12T02:13:49.986Z,16.90
2022-09-12T02:16:22.440Z,17.06
2022-09-12T02:18:57.885Z,16.87
2022-09-12T02:21:27.578Z,17.01
2022-09-12T02:23:58.472Z,17.30
2022-09-12T02:26:32.981Z,17.13
2022-09-12T02:28:59.908Z,17.35
2022-09-12T02:31:42.752Z,17.39
2022-09-12T02:34:49.539Z,17.13
2022-09-12T02:37:25.969Z,17.18
2022-09-12T02:39:55.211Z,17.59
2022-09-12T02:42:22.732Z,17.43
2022-09-12T02:44:51.625Z,17.47
2022-09-12T02:47:49.421Z,17.54
2022-09-12T02:50:16.950Z,17.66
2022-09-12T02:52:44.322Z,17.29
2022-09-12T02:55:12.223Z,16.67
2022-09-12T02:57:39.134Z,17.27
2022-09-12T03:00:06.730Z,17.40
2022-09-12T03:02:59.285Z,17.31
2022-09-12T03:05:33.506Z,17.35
2022-09-12T03:08:40.455Z,16.67
2022-09-12T03:11:14.671Z,16.70
2022-09-12T03:14:02.600Z,17.07
2022-09-12T03:16:40.765Z,17.10
2022-09-12T03:19:34.304Z,17.03
2022-09-12T03:22:25.423Z,16.98
2022-09-12T03:25:14.337Z,17.33
2022-09-12T03:27:52.437Z,16.90
2022-09-12T03:30:19.153Z,17.01
2022-09-12T03:32:49.217Z,16.89
2022-09-12T03:35:22.866Z,16.90
2022-09-12T03:37:51.218Z,17.22
2022-09-12T03:40:17.986Z,17.31
2022-09-12T03:42:44.644Z,16.79
2022-09-12T03:45:12.112Z,16.65
2022-09-12T03:47:39.568Z,16.97
2022-09-12T03:50:06.786Z,17.39
2022-09-12T03:52:33.577Z,17.35
2022-09-12T03:55:00.458Z,17.58
2022-09-12T03:57:27.106Z,17.66
2022-09-12T03:59:54.080Z,17.66
2022-09-12T04:02:21.289Z,17.72
2022-09-12T04:04:48.918Z,17.78
2022-09-12T04:07:19.192Z,17.82
2022-09-12T04:09:45.799Z,17.36
2022-09-12T04:12:14.101Z,17.60
2022-09-12T04:14:40.803Z,17.87
2022-09-12T04:17:07.671Z,17.59
2022-09-12T04:19:34.412Z,17.50
2022-09-12T04:22:01.059Z,17.63
2022-09-12T04:24:27.666Z,17.24
2022-09-12T04:26:54.298Z,17.48
2022-09-12T04:29:20.943Z,17.37
2022-09-12T04:31:47.680Z,17.67
2022-09-12T04:34:15.250Z,17.46
2022-09-12T04:36:42.240Z,17.78
2022-09-12T04:39:10.098Z,17.96
2022-09-12T04:41:38.829Z,18.21
2022-09-12T04:44:12.485Z,18.09
2022-09-12T04:46:42.620Z,17.68
2022-09-12T04:49:09.743Z,17.47
2022-09-12T04:51:38.421Z,17.66
2022-09-12T04:54:08.307Z,17.75
2022-09-12T04:56:39.219Z,18.17
2022-09-12T04:59:06.922Z,18.44
2022-09-12T05:01:33.744Z,17.72
2022-09-12T05:04:00.640Z,17.84
2022-09-12T05:06:31.677Z,17.94
2022-09-12T05:08:59.752Z,18.20
2022-09-12T05:12:02.613Z,17.67
2022-09-12T05:14:24.620Z,17.76
2022-09-12T05:16:51.213Z,18.10
2022-09-12T05:19:18.123Z,18.27
2022-09-12T05:21:44.726Z,18.65
2022-09-12T05:24:11.668Z,17.93
2022-09-12T05:26:38.626Z,18.31
2022-09-12T05:29:06.144Z,18.23
2022-09-12T05:31:32.974Z,18.51
2022-09-12T05:33:59.531Z,18.05
2022-09-12T05:36:30.451Z,18.09
2022-09-12T05:38:59.749Z,18.05
2022-09-12T05:41:29.586Z,18.29
2022-09-12T05:44:01.294Z,18.29
2022-09-12T05:46:30.145Z,18.39
2022-09-12T05:48:58.394Z,18.41
2022-09-12T05:51:27.243Z,18.28
2022-09-12T05:53:59.250Z,18.42
2022-09-12T05:56:31.752Z,18.41
2022-09-12T05:59:01.037Z,18.86
2022-09-12T06:01:29.545Z,19.04
2022-09-12T06:04:00.834Z,19.44
2022-09-12T06:06:29.339Z,19.53
2022-09-12T06:09:02.151Z,19.62
2022-09-12T06:11:31.110Z,19.21
2022-09-12T06:13:58.598Z,19.61
2022-09-12T06:16:30.499Z,19.37
2022-09-12T06:19:00.019Z,19.19
2022-09-12T06:21:27.092Z,19.03
2022-09-12T06:23:55.022Z,18.83
2022-09-12T06:26:23.563Z,18.74
2022-09-12T06:28:50.805Z,18.63
2022-09-12T06:31:22.248Z,18.84
2022-09-12T06:33:50.875Z,19.26
2022-09-12T06:36:25.678Z,19.20
2022-09-12T06:39:01.139Z,19.17
2022-09-12T06:41:29.316Z,18.55
2022-09-12T06:43:56.190Z,18.69
2022-09-12T06:46:23.191Z,18.70
2022-09-12T06:48:50.612Z,18.18
2022-09-12T06:51:20.057Z,17.95
2022-09-12T06:53:47.625Z,18.69
2022-09-12T06:56:19.586Z,18.41
2022-09-12T06:58:47.524Z,18.43
2022-09-12T07:01:24.908Z,18.20
2022-09-12T07:03:56.579Z,17.86
2022-09-12T07:06:37.716Z,18.46
2022-09-12T07:09:06.306Z,18.33
2022-09-12T07:11:35.261Z,18.01
2022-09-12T07:14:04.076Z,18.77
2022-09-12T07:16:30.867Z,18.67
2022-09-12T07:19:00.152Z,19.41
2022-09-12T07:21:27.581Z,19.65
2022-09-12T07:24:00.637Z,19.54
2022-09-12T07:26:29.242Z,18.92
2022-09-12T07:29:12.877Z,19.16
2022-09-12T07:31:44.717Z,19.74
2022-09-12T07:34:11.424Z,19.72
2022-09-12T07:36:38.719Z,19.31
2022-09-12T07:39:05.982Z,18.98
2022-09-12T07:41:37.205Z,18.68
2022-09-12T07:44:05.068Z,19.23
2022-09-12T07:46:32.042Z,19.33
2022-09-12T07:49:00.181Z,19.92
2022-09-12T07:51:28.496Z,20.46
2022-09-12T07:53:56.433Z,20.36
2022-09-12T07:56:28.798Z,20.24
2022-09-12T07:58:57.005Z,20.14
2022-09-12T08:01:23.735Z,20.36
2022-09-12T08:03:54.496Z,20.31
2022-09-12T08:06:24.320Z,19.82
2022-09-12T08:08:52.730Z,19.29
2022-09-12T08:11:23.543Z,19.55
2022-09-12T08:13:55.434Z,20.03
2022-09-12T08:16:24.965Z,19.39
2022-09-12T08:18:51.824Z,18.91
2022-09-12T08:21:22.711Z,19.24
2022-09-12T08:24:00.961Z,19.06
2022-09-12T08:26:28.375Z,19.85
2022-09-12T08:28:55.287Z,19.49
2022-09-12T08:31:24.472Z,19.32
2022-09-12T08:33:51.871Z,19.65
2022-09-12T08:36:21.482Z,20.13
2022-09-12T08:38:50.841Z,19.76
2022-09-12T08:41:43.494Z,19.31
2022-09-12T08:44:31.657Z,19.33
2022-09-12T08:47:22.747Z,19.76
2022-09-12T08:50:10.904Z,20.07
2022-09-12T08:52:43.477Z,19.93
2022-09-12T08:55:28.118Z,20.27
2022-09-12T08:57:54.883Z,20.40
2022-09-12T09:00:22.088Z,19.78
2022-09-12T09:03:50.455Z,19.70
2022-09-12T09:06:26.954Z,19.18
2022-09-12T09:09:12.213Z,19.56
2022-09-12T09:11:48.236Z,19.70
2022-09-12T09:14:56.553Z,19.72
2022-09-12T09:17:29.730Z,19.80
2022-09-12T09:20:03.358Z,19.61
2022-09-12T09:22:46.160Z,20.59
2022-09-12T09:25:35.868Z,20.42
2022-09-12T09:28:06.921Z,19.86
2022-09-12T09:30:36.059Z,20.16
2022-09-12T09:33:04.968Z,20.10
2022-09-12T09:35:48.854Z,20.06
2022-09-12T09:38:36.799Z,20.29
2022-09-12T09:41:46.973Z,19.90
2022-09-12T09:44:13.757Z,19.77
2022-09-12T09:46:40.461Z,20.08
2022-09-12T09:49:12.042Z,20.02
2022-09-12T09:51:40.792Z,19.72
2022-09-12T09:54:13.222Z,19.82
2022-09-12T09:56:42.559Z,19.89
2022-09-12T09:59:27.189Z,19.87
2022-09-12T10:01:57.863Z,19.73
2022-09-12T10:04:27.973Z,19.91
2022-09-12T10:06:58.045Z,19.63
2022-09-12T10:09:33.230Z,19.27
2022-09-12T10:12:04.878Z,19.81
2022-09-12T10:14:36.813Z,20.43
2022-09-12T10:17:34.229Z,20.41
2022-09-12T10:20:21.443Z,21.12
2022-09-12T10:22:49.087Z,21.30
2022-09-12T10:25:19.397Z,21.17
2022-09-12T10:27:54.239Z,21.22
2022-09-12T10:30:24.916Z,21.53
2022-09-12T10:32:52.042Z,21.10
2022-09-12T10:35:20.755Z,20.90
2022-09-12T10:38:07.271Z,20.56
2022-09-12T10:40:40.885Z,21.13
2022-09-12T10:43:25.543Z,21.24
2022-09-12T10:45:55.481Z,20.72
2022-09-12T10:48:24.868Z,20.02
2022-09-12T10:50:51.991Z,19.95
2022-09-12T10:53:25.189Z,20.08
2022-09-12T10:56:09.581Z,20.49
2022-09-12T10:58:41.929Z,20.74
2022-09-12T11:01:14.648Z,20.94
2022-09-12T11:04:26.054Z,20.55
2022-09-12T11:07:17.493Z,21.86
2022-09-12T11:09:55.967Z,21.51
2022-09-12T11:12:41.581Z,21.76
2022-09-12T11:15:23.244Z,21.28
2022-09-12T11:18:25.168Z,21.15
2022-09-12T11:21:26.822Z,21.11
2022-09-12T11:24:20.799Z,20.81
2022-09-12T11:27:11.967Z,20.35
2022-09-12T11:29:49.145Z,20.62
2022-09-12T11:32:51.071Z,21.35
2022-09-12T11:35:29.854Z,20.75
2022-09-12T11:38:25.631Z,21.05
2022-09-12T11:41:21.278Z,19.82
2022-09-12T11:44:01.491Z,20.50
2022-09-12T11:46:36.370Z,19.66
2022-09-12T11:49:15.603Z,19.96
2022-09-12T11:51:58.087Z,20.07
2022-09-12T11:54:29.717Z,20.45
2022-09-12T11:57:18.625Z,20.20
2022-09-12T11:59:58.482Z,19.98
2022-09-12T12:02:39.447Z,20.48
2022-09-12T12:05:15.103Z,20.90
2022-09-12T12:07:45.562Z,20.70
2022-09-12T12:10:27.273Z,19.89
2022-09-12T12:12:56.610Z,19.69
2022-09-12T12:15:25.683Z,20.07
2022-09-12T12:18:17.655Z,20.56
2022-09-12T12:20:44.671Z,20.58
2022-09-12T12:23:27.032Z,20.51
2022-09-12T12:25:58.944Z,20.58
2022-09-12T12:28:50.642Z,20.58
2022-09-12T12:31:18.531Z,20.96
2022-09-12T12:33:45.188Z,20.33
2022-09-12T12:36:36.773Z,20.62
2022-09-12T12:39:31.515Z,20.86
2022-09-12T12:42:01.625Z,20.82
2022-09-12T12:44:48.602Z,20.60
2022-09-12T12:47:38.222Z,20.91
2022-09-12T12:50:04.916Z,20.81
2022-09-12T12:52:41.858Z,20.21
2022-09-12T12:55:20.306Z,19.88
2022-09-12T12:58:07.598Z,19.83
2022-09-12T13:00:39.702Z,19.77
2022-09-12T13:03:09.530Z,20.23
2022-09-12T13:05:46.255Z,20.02
2022-09-12T13:08:19.022Z,19.97
2022-09-12T13:10:59.685Z,19.90
2022-09-12T13:13:52.974Z,19.86
2022-09-12T13:16:37.747Z,19.63
2022-09-12T13:19:18.247Z,19.58
2022-09-12T13:22:01.091Z,20.39
2022-09-12T13:24:28.242Z,20.04
2022-09-12T13:26:55.407Z,19.62
2022-09-12T13:29:25.154Z,20.30
2022-09-12T13:31:56.019Z,20.68
2022-09-12T13:34:26.092Z,20.41
2022-09-12T13:37:28.045Z,20.64
2022-09-12T13:40:39.318Z,20.39
2022-09-12T13:43:08.520Z,20.34
2022-09-12T13:45:42.168Z,19.97
2022-09-12T13:48:16.999Z,19.72
2022-09-12T13:50:53.978Z,20.26
2022-09-12T13:53:24.142Z,20.00
2022-09-12T13:55:56.388Z,20.03
2022-09-12T13:58:26.388Z,19.41
2022-09-12T14:01:07.367Z,19.50
2022-09-12T14:04:08.731Z,19.51
2022-09-12T14:06:57.402Z,19.31
2022-09-12T14:09:31.160Z,19.75
2022-09-12T14:11:58.866Z,20.02
2022-09-12T14:14:34.316Z,19.91
2022-09-12T14:17:00.967Z,19.86
2022-09-12T14:19:29.338Z,19.96
2022-09-12T14:21:59.102Z,20.34
2022-09-12T14:24:26.187Z,20.26
2022-09-12T14:26:55.642Z,20.20
2022-09-12T14:29:23.930Z,19.86
2022-09-12T14:32:02.931Z,19.91
2022-09-12T14:34:29.984Z,19.90
2022-09-12T14:36:57.854Z,20.23
2022-09-12T14:39:43.334Z,20.30
2022-09-12T14:42:22.369Z,20.46
2022-09-12T14:44:58.743Z,20.01
2022-09-12T14:47:28.198Z,19.82
2022-09-12T14:49:55.006Z,20.20
2022-09-12T14:52:26.420Z,20.26
2022-09-12T14:55:29.689Z,19.50
2022-09-12T14:58:21.093Z,19.73
2022-09-12T15:01:00.100Z,19.80
2022-09-12T15:03:51.720Z,20.45
2022-09-12T15:06:40.123Z,20.62
2022-09-12T15:09:12.375Z,19.99
2022-09-12T15:11:39.485Z,19.82
2022-09-12T15:14:13.798Z,20.07
2022-09-12T15:16:40.405Z,20.16
2022-09-12T15:19:07.066Z,20.05
2022-09-12T15:21:33.684Z,20.04
2022-09-12T15:24:00.302Z,20.16
2022-09-12T15:26:30.608Z,20.06
2022-09-12T15:28:57.673Z,19.88
2022-09-12T15:31:31.988Z,19.92
2022-09-12T15:34:00.712Z,20.36
2022-09-12T15:36:28.949Z,20.40
2022-09-12T15:38:56.001Z,20.75
2022-09-12T15:41:29.277Z,20.76
2022-09-12T15:43:56.812Z,20.57
2022-09-12T15:46:24.008Z,20.40
2022-09-12T15:48:50.865Z,20.34
2022-09-12T15:51:20.089Z,20.14
2022-09-12T15:53:48.223Z,20.07
2022-09-12T15:56:16.492Z,20.41
2022-09-12T15:58:57.772Z,19.86
2022-09-12T16:01:25.321Z,19.52
2022-09-12T16:03:52.181Z,20.73
2022-09-12T16:06:18.837Z,21.22
2022-09-12T16:08:46.271Z,21.25
2022-09-12T16:11:26.985Z,20.33
2022-09-12T16:13:54.370Z,20.78
2022-09-12T16:16:21.495Z,21.00
2022-09-12T16:18:48.248Z,21.17
2022-09-12T16:21:15.882Z,21.13
2022-09-12T16:23:46.970Z,20.85
2022-09-12T16:26:14.508Z,21.10
2022-09-12T16:28:41.428Z,21.12
2022-09-12T16:31:10.408Z,20.80
2022-09-12T16:33:38.240Z,20.63
2022-09-12T16:36:10.228Z,20.68
2022-09-12T16:38:44.417Z,20.20
2022-09-12T16:41:11.908Z,19.78
2022-09-12T16:43:39.069Z,19.82
2022-09-12T16:46:08.574Z,19.43
2022-09-12T16:48:37.246Z,19.44
2022-09-12T16:51:06.986Z,19.88
2022-09-12T16:53:36.770Z,20.05
2022-09-12T16:56:07.274Z,20.26
2022-09-12T16:58:41.922Z,20.39
2022-09-12T17:01:13.828Z,20.46
2022-09-12T17:03:40.859Z,20.42
2022-09-12T17:06:13.009Z,19.98
2022-09-12T17:08:45.556Z,20.32
2022-09-12T17:11:17.746Z,20.68
2022-09-12T17:14:06.927Z,20.58
2022-09-12T17:16:36.652Z,20.63
2022-09-12T17:19:04.516Z,20.38
2022-09-12T17:21:31.952Z,20.51
2022-09-12T17:23:59.443Z,20.04
2022-09-12T17:26:26.832Z,20.10
2022-09-12T17:28:53.645Z,20.10
2022-09-12T17:31:20.407Z,20.04
2022-09-12T17:33:47.252Z,20.42
2022-09-12T17:36:16.897Z,20.19
2022-09-12T17:38:45.263Z,20.30
2022-09-12T17:41:18.116Z,20.45
2022-09-12T17:43:50.350Z,20.61
2022-09-12T17:46:22.310Z,20.68
2022-09-12T17:48:56.409Z,20.38
2022-09-12T17:51:25.878Z,20.32
2022-09-12T17:54:02.327Z,19.90
2022-09-12T17:56:31.566Z,20.19
2022-09-12T17:58:59.520Z,19.80
2022-09-12T18:01:47.037Z,20.13
2022-09-12T18:04:15.331Z,19.77
2022-09-12T18:06:48.967Z,20.00
2022-09-12T18:09:18.656Z,19.81
2022-09-12T18:11:46.152Z,20.01
2022-09-12T18:14:14.352Z,19.70
2022-09-12T18:16:41.646Z,19.96
2022-09-12T18:19:08.350Z,20.03
2022-09-12T18:21:35.137Z,20.23
2022-09-12T18:24:03.459Z,20.11
2022-09-12T18:26:31.488Z,20.17
2022-09-12T18:28:59.540Z,19.99
2022-09-12T18:31:29.147Z,20.23
2022-09-12T18:33:56.332Z,19.88
2022-09-12T18:36:23.700Z,19.60
2022-09-12T18:38:50.389Z,19.02
2022-09-12T18:41:19.852Z,19.81
2022-09-12T18:43:47.352Z,19.62
2022-09-12T18:46:20.110Z,19.35
2022-09-12T18:48:46.956Z,19.52
2022-09-12T18:51:16.471Z,18.91
2022-09-12T18:53:43.893Z,19.15
2022-09-12T18:56:12.726Z,19.10
2022-09-12T18:58:42.625Z,19.44
2022-09-12T19:01:11.798Z,18.98
2022-09-12T19:03:40.082Z,18.97
2022-09-12T19:06:12.210Z,18.71
2022-09-12T19:08:39.238Z,19.47
2022-09-12T19:11:06.569Z,19.35
2022-09-12T19:13:38.728Z,19.61
2022-09-12T19:16:09.206Z,19.56
2022-09-12T19:18:37.147Z,19.62
2022-09-12T19:21:05.140Z,19.59
2022-09-12T19:23:33.174Z,19.78
2022-09-12T19:26:03.677Z,19.93
2022-09-12T19:28:31.243Z,19.97
2022-09-12T19:30:59.917Z,19.42
2022-09-12T19:33:26.504Z,19.43
2022-09-12T19:35:53.180Z,19.58
2022-09-12T19:38:19.763Z,20.02
2022-09-12T19:40:57.380Z,19.09
2022-09-12T19:43:24.372Z,19.49
2022-09-12T19:45:52.040Z,19.07
2022-09-12T19:48:19.995Z,19.43
2022-09-12T19:50:46.850Z,19.27
2022-09-12T19:53:15.615Z,19.42
2022-09-12T19:55:42.856Z,19.55
2022-09-12T19:58:09.833Z,18.89
2022-09-12T20:00:37.385Z,19.01
2022-09-12T20:03:05.865Z,18.90
2022-09-12T20:05:33.506Z,19.12
2022-09-12T20:08:00.848Z,19.59
2022-09-12T20:10:27.560Z,19.41
2022-09-12T20:12:54.201Z,19.28
2022-09-12T20:15:20.963Z,19.31
2022-09-12T20:17:47.568Z,19.65
2022-09-12T20:20:14.222Z,19.31
2022-09-12T20:22:40.857Z,18.85
2022-09-12T20:25:08.098Z,19.12
2022-09-12T20:27:34.889Z,19.43
2022-09-12T20:30:01.536Z,18.96
2022-09-12T20:32:29.076Z,19.08
2022-09-12T20:34:56.472Z,18.70
2022-09-12T20:37:23.719Z,18.94
2022-09-12T20:39:51.081Z,19.39
2022-09-12T20:42:17.969Z,19.27
2022-09-12T20:44:44.691Z,19.13
2022-09-12T20:47:11.459Z,19.32
2022-09-12T20:49:38.106Z,19.21
2022-09-12T20:52:04.773Z,19.16
2022-09-12T20:54:31.383Z,19.04
2022-09-12T20:56:58.012Z,19.19
2022-09-12T20:59:24.601Z,19.47
2022-09-12T21:01:51.397Z,18.85
2022-09-12T21:04:18.553Z,19.32
2022-09-12T21:06:45.203Z,19.38
2022-09-12T21:09:11.866Z,19.02
2022-09-12T21:11:38.437Z,19.27
2022-09-12T21:14:05.181Z,19.17
2022-09-12T21:16:38.369Z,19.37
2022-09-12T21:19:06.567Z,19.30
2022-09-12T21:21:33.231Z,19.30
2022-09-12T21:24:02.705Z,18.85
2022-09-12T21:26:30.189Z,18.89
2022-09-12T21:28:57.480Z,19.00
2022-09-12T21:31:24.476Z,19.21
2022-09-12T21:33:51.932Z,18.79
2022-09-12T21:36:18.577Z,19.08
2022-09-12T21:38:45.165Z,18.88
2022-09-12T21:41:14.008Z,19.28
2022-09-12T21:43:41.523Z,18.68
2022-09-12T21:46:08.904Z,18.40
2022-09-12T21:48:36.032Z,18.96
2022-09-12T21:51:03.483Z,18.90
2022-09-12T21:53:31.143Z,18.91
2022-09-12T21:56:02.642Z,18.96
2022-09-12T21:58:29.267Z,18.97
2022-09-12T22:00:56.305Z,18.94
2022-09-12T22:03:22.946Z,19.02
2022-09-12T22:06:02.218Z,18.68
2022-09-12T22:08:30.907Z,18.89
2022-09-12T22:11:02.613Z,18.90
2022-09-12T22:13:32.380Z,18.94
2022-09-12T22:16:01.140Z,19.01
2022-09-12T22:18:27.826Z,19.06
2022-09-12T22:21:09.777Z,18.91
2022-09-12T22:23:55.188Z,18.82
2022-09-12T22:26:22.073Z,18.74
2022-09-12T22:28:49.269Z,18.93
2022-09-12T22:31:17.077Z,18.98
2022-09-12T22:33:43.830Z,18.83
2022-09-12T22:36:10.551Z,18.25
2022-09-12T22:38:37.631Z,18.83
2022-09-12T22:41:09.412Z,18.65
2022-09-12T22:43:36.647Z,18.38
2022-09-12T22:46:12.289Z,18.67
2022-09-12T22:48:39.563Z,18.48
2022-09-12T22:51:06.856Z,18.53
2022-09-12T22:53:34.357Z,18.22
2022-09-12T22:56:02.255Z,18.29
2022-09-12T22:58:29.087Z,18.58
2022-09-12T23:00:55.893Z,18.49
2022-09-12T23:03:22.605Z,18.74
2022-09-12T23:05:49.305Z,18.34
2022-09-12T23:08:17.846Z,18.25
2022-09-12T23:10:44.480Z,18.11
2022-09-12T23:13:11.211Z,18.47
2022-09-12T23:15:37.970Z,18.39
2022-09-12T23:18:05.236Z,18.29
2022-09-12T23:20:31.963Z,18.46
2022-09-12T23:22:58.639Z,18.50
2022-09-12T23:25:26.228Z,18.19
2022-09-12T23:27:53.551Z,18.24
2022-09-12T23:30:21.606Z,18.07
2022-09-12T23:32:49.156Z,18.00
2022-09-12T23:35:19.538Z,18.13
2022-09-12T23:37:46.887Z,17.97
2022-09-12T23:40:13.846Z,18.40
2022-09-12T23:42:40.500Z,18.63
2022-09-12T23:45:07.583Z,18.47
2022-09-12T23:47:34.190Z,18.07
2022-09-12T23:50:00.924Z,17.78
2022-09-12T23:52:27.468Z,17.71
2022-09-12T23:54:54.103Z,18.15
2022-09-12T23:57:20.988Z,18.27
2022-09-12T23:59:47.724Z,18.74
